Time;durP1;ratioP1;P1;durP2;ratioP2;P2;SDS_P1;SDS_P2;PMS_P1;PMS_P2;Temp;Humidity;BMP_temperature;BMP_pressure;BME280_temperature;BME280_humidity;BME280_pressure;Samples;Min_cycle;Max_cycle;Signal;HPM_P1;HPM_P2
2024/04/21 00:00:29;;;;;;;0.00;0.00;;;19.60;51.60;;;;;;5410231;26;20229;-48
2024/04/21 00:03:02;;;;;;;0.00;0.00;;;19.60;51.60;;;;;;5409894;26;20322;-46
2024/04/21 00:05:31;;;;;;;0.00;0.00;;;19.70;51.70;;;;;;5384612;26;20271;-46
2024/04/21 00:08:08;;;;;;;0.00;0.00;;;19.70;51.70;;;;;;5374384;26;20222;-47
2024/04/21 00:10:37;;;;;;;0.00;0.00;;;19.80;51.70;;;;;;5374347;26;20334;-54
2024/04/21 00:13:09;;;;;;;0.10;0.10;;;19.80;51.80;;;;;;5385022;26;20230;-48
2024/04/21 00:15:38;;;;;;;0.00;0.00;;;19.80;51.70;;;;;;5409045;26;20221;-47
2024/04/21 00:18:11;;;;;;;0.00;0.00;;;19.80;51.70;;;;;;5409573;26;20213;-47
2024/04/21 00:20:40;;;;;;;0.05;0.05;;;19.90;51.70;;;;;;5409768;26;20205;-49
2024/04/21 00:23:15;;;;;;;0.10;0.10;;;19.90;51.60;;;;;;5410427;26;20260;-48
2024/04/21 00:25:45;;;;;;;0.00;0.00;;;20.00;51.60;;;;;;5408241;26;20364;-49
2024/04/21 00:28:17;;;;;;;0.10;0.10;;;20.00;51.50;;;;;;5409710;26;20279;-51
2024/04/21 00:30:46;;;;;;;0.10;0.10;;;20.10;51.50;;;;;;5408740;26;20259;-48
2024/04/21 00:33:18;;;;;;;0.00;0.00;;;20.10;51.40;;;;;;5409575;26;20826;-47
2024/04/21 00:35:48;;;;;;;0.00;0.00;;;20.10;51.30;;;;;;5410122;26;20622;-52
2024/04/21 00:38:23;;;;;;;0.05;0.05;;;20.20;51.30;;;;;;5409190;26;20676;-49
2024/04/21 00:40:52;;;;;;;0.00;0.00;;;20.30;51.20;;;;;;5408004;26;20275;-49
2024/04/21 00:43:25;;;;;;;0.10;0.10;;;20.30;51.10;;;;;;5409404;26;20221;-50
2024/04/21 00:45:54;;;;;;;0.03;0.03;;;20.30;51.00;;;;;;5409808;26;20248;-48
2024/04/21 00:48:26;;;;;;;0.03;0.03;;;20.40;51.00;;;;;;5408965;26;20225;-49
2024/04/21 00:50:56;;;;;;;0.00;0.00;;;20.40;51.00;;;;;;5383105;26;20222;-50
2024/04/21 00:53:32;;;;;;;0.00;0.00;;;20.40;50.90;;;;;;5381851;26;20307;-58
2024/04/21 00:56:02;;;;;;;0.10;0.10;;;20.40;50.80;;;;;;5408679;26;20217;-54
2024/04/21 00:58:34;;;;;;;0.10;0.10;;;20.50;50.90;;;;;;5410209;26;20253;-49
2024/04/21 01:01:05;;;;;;;0.03;0.03;;;20.50;50.80;;;;;;5409338;26;20686;-52
2024/04/21 01:03:38;;;;;;;0.10;0.10;;;20.60;50.80;;;;;;5408005;26;20255;-55
2024/04/21 01:06:07;;;;;;;0.03;0.03;;;20.60;50.70;;;;;;5373407;26;20214;-54
2024/04/21 01:08:45;;;;;;;0.10;0.10;;;20.60;50.60;;;;;;5398583;26;20357;-49
2024/04/21 01:11:18;;;;;;;0.15;0.15;;;20.70;50.60;;;;;;5407878;26;20325;-53
2024/04/21 01:13:50;;;;;;;0.05;0.05;;;20.70;50.50;;;;;;5408316;26;20214;-53
2024/04/21 01:16:20;;;;;;;0.00;0.00;;;20.80;50.40;;;;;;5405167;26;21837;-53
2024/04/21 01:18:52;;;;;;;0.00;0.00;;;20.80;50.40;;;;;;5373552;26;20234;-50
2024/04/21 01:21:21;;;;;;;0.00;0.00;;;20.80;50.20;;;;;;5379107;26;20693;-50
2024/04/21 01:23:57;;;;;;;0.10;0.10;;;20.90;50.20;;;;;;5408144;26;20218;-49
2024/04/21 01:26:26;;;;;;;0.00;0.00;;;20.90;50.70;;;;;;5409807;26;20209;-50
2024/04/21 01:28:58;;;;;;;0.00;0.00;;;20.90;50.00;;;;;;5411188;26;20776;-50
2024/04/21 01:31:28;;;;;;;0.10;0.10;;;21.00;50.00;;;;;;5411509;26;20268;-49
2024/04/21 01:34:00;;;;;;;0.10;0.10;;;21.00;49.90;;;;;;5410182;26;20233;-54
2024/04/21 01:36:30;;;;;;;0.10;0.10;;;21.00;49.80;;;;;;5412346;26;20261;-50
2024/04/21 01:39:05;;;;;;;0.00;0.00;;;21.10;49.70;;;;;;5411451;26;20806;-57
2024/04/21 01:41:34;;;;;;;0.00;0.00;;;21.10;49.70;;;;;;5412698;26;20315;-49
2024/04/21 01:44:06;;;;;;;0.10;0.10;;;21.10;49.60;;;;;;5412677;26;20256;-50
2024/04/21 01:46:36;;;;;;;0.00;0.00;;;21.10;49.60;;;;;;5410578;26;20214;-52
2024/04/21 01:49:08;;;;;;;0.10;0.10;;;21.20;49.60;;;;;;5402294;26;20229;-50
2024/04/21 01:51:37;;;;;;;0.08;0.08;;;21.20;49.60;;;;;;5376405;26;20589;-48
2024/04/21 01:54:12;;;;;;;0.10;0.10;;;21.20;49.40;;;;;;5375510;26;20292;-49
2024/04/21 01:56:41;;;;;;;0.00;0.00;;;21.20;49.40;;;;;;5376105;26;21001;-49
2024/04/21 01:59:14;;;;;;;0.00;0.00;;;21.30;49.40;;;;;;5375967;26;20222;-48
2024/04/21 02:01:43;;;;;;;0.00;0.00;;;21.30;49.30;;;;;;5385470;26;20222;-49
2024/04/21 02:04:15;;;;;;;0.03;0.03;;;21.30;49.30;;;;;;5410585;26;20221;-50
2024/04/21 02:06:44;;;;;;;0.00;0.00;;;21.30;49.30;;;;;;5411675;26;20217;-50
2024/04/21 02:09:20;;;;;;;0.10;0.10;;;21.40;49.20;;;;;;5410758;26;20795;-48
2024/04/21 02:11:50;;;;;;;0.00;0.00;;;21.40;49.20;;;;;;5388361;26;20267;-50
2024/04/21 02:14:22;;;;;;;0.03;0.03;;;21.40;49.10;;;;;;5384971;26;20230;-49
2024/04/21 02:16:51;;;;;;;0.00;0.00;;;21.40;49.00;;;;;;5411309;26;20244;-52
2024/04/21 02:19:23;;;;;;;0.00;0.00;;;21.40;48.90;;;;;;5411798;26;20240;-55
2024/04/21 02:21:52;;;;;;;0.10;0.10;;;21.50;48.90;;;;;;5411554;26;20309;-50
2024/04/21 02:24:30;;;;;;;0.10;0.10;;;21.50;48.80;;;;;;5411450;26;20221;-51
2024/04/21 02:26:59;;;;;;;0.10;0.10;;;21.50;48.70;;;;;;5410981;26;20216;-50
2024/04/21 02:29:31;;;;;;;0.00;0.00;;;21.50;48.70;;;;;;5410287;26;20229;-51
2024/04/21 02:32:00;;;;;;;0.10;0.10;;;21.50;48.60;;;;;;5410924;26;20729;-52
2024/04/21 02:34:32;;;;;;;0.00;0.00;;;21.60;48.70;;;;;;5399483;26;20227;-47
2024/04/21 02:37:02;;;;;;;0.08;0.08;;;21.60;48.60;;;;;;5375483;26;20249;-47
2024/04/21 02:39:37;;;;;;;0.00;0.00;;;21.60;48.60;;;;;;5376845;26;20808;-47
2024/04/21 02:42:06;;;;;;;0.10;0.10;;;21.60;48.50;;;;;;5397693;26;20259;-47
2024/04/21 02:44:39;;;;;;;0.00;0.00;;;21.70;48.60;;;;;;5410064;26;20322;-46
2024/04/21 02:47:08;;;;;;;0.08;0.08;;;21.70;48.50;;;;;;5411255;26;20244;-46
2024/04/21 02:49:40;;;;;;;0.08;0.08;;;21.70;48.40;;;;;;5406649;26;20832;-47
2024/04/21 02:52:09;;;;;;;0.00;0.00;;;21.80;48.40;;;;;;5410701;26;20362;-49
2024/04/21 02:54:45;;;;;;;0.10;0.10;;;21.80;48.40;;;;;;5410185;26;20225;-52
2024/04/21 02:57:14;;;;;;;0.00;0.00;;;21.80;48.40;;;;;;5405497;26;20229;-48
2024/04/21 02:59:46;;;;;;;0.10;0.10;;;21.80;48.30;;;;;;5374971;26;20335;-49
2024/04/21 03:02:15;;;;;;;0.10;0.10;;;21.90;48.30;;;;;;5376803;26;20264;-49
2024/04/21 03:04:48;;;;;;;0.00;0.00;;;21.90;48.30;;;;;;5374349;26;20604;-48
2024/04/21 03:07:17;;;;;;;0.03;0.03;;;21.90;48.30;;;;;;5399365;26;20214;-47
2024/04/21 03:09:53;;;;;;;0.10;0.10;;;21.90;48.40;;;;;;5410955;26;20275;-48
2024/04/21 03:12:22;;;;;;;0.00;0.00;;;21.90;48.30;;;;;;5409126;26;20213;-47
2024/04/21 03:14:55;;;;;;;0.10;0.10;;;21.90;48.30;;;;;;5410718;26;20298;-47
2024/04/21 03:17:24;;;;;;;0.00;0.00;;;21.90;48.20;;;;;;5383396;26;20281;-49
2024/04/21 03:19:56;;;;;;;0.03;0.03;;;22.00;48.20;;;;;;5384055;26;20277;-50
2024/04/21 03:22:25;;;;;;;0.00;0.00;;;21.90;48.20;;;;;;5410496;26;20278;-48
2024/04/21 03:25:01;;;;;;;0.10;0.10;;;22.00;48.30;;;;;;5410829;26;20726;-47
2024/04/21 03:27:30;;;;;;;0.03;0.03;;;22.00;48.30;;;;;;5411142;26;20689;-47
2024/04/21 03:30:02;;;;;;;0.10;0.10;;;22.00;48.30;;;;;;5409694;26;20284;-48
2024/04/21 03:32:31;;;;;;;0.03;0.03;;;22.00;48.20;;;;;;5409251;26;20229;-48
2024/04/21 03:35:04;;;;;;;0.10;0.10;;;22.00;48.30;;;;;;5413030;26;20233;-47
2024/04/21 03:37:36;;;;;;;0.00;0.00;;;22.00;48.20;;;;;;5414060;26;20720;-47
2024/04/21 03:40:13;;;;;;;0.10;0.10;;;22.00;48.20;;;;;;5413202;26;20672;-48
2024/04/21 03:42:45;;;;;;;0.00;0.00;;;22.00;48.00;;;;;;5413311;26;20718;-47
2024/04/21 03:45:17;;;;;;;0.10;0.10;;;22.00;48.10;;;;;;5414226;26;20221;-47
2024/04/21 03:47:46;;;;;;;0.00;0.00;;;22.00;48.00;;;;;;5415307;26;20217;-47
2024/04/21 03:50:19;;;;;;;0.00;0.00;;;22.00;47.90;;;;;;5412878;26;20225;-48
2024/04/21 03:52:48;;;;;;;0.00;0.00;;;22.00;47.90;;;;;;5409009;26;20221;-53
2024/04/21 03:55:23;;;;;;;0.00;0.00;;;22.00;47.90;;;;;;5414975;26;20225;-51
2024/04/21 03:57:53;;;;;;;0.03;0.03;;;22.10;48.00;;;;;;5415556;26;20267;-52
2024/04/21 04:00:25;;;;;;;0.10;0.10;;;22.00;47.90;;;;;;5414550;26;20277;-48
2024/04/21 04:02:54;;;;;;;0.00;0.00;;;22.10;47.80;;;;;;5411567;26;20222;-48
2024/04/21 04:05:27;;;;;;;0.00;0.00;;;22.10;47.70;;;;;;5413894;26;20334;-50
2024/04/21 04:07:56;;;;;;;0.00;0.00;;;22.10;47.60;;;;;;5415009;26;20271;-48
2024/04/21 04:10:32;;;;;;;0.00;0.00;;;22.10;47.60;;;;;;5414712;26;20333;-48
2024/04/21 04:13:02;;;;;;;0.00;0.00;;;22.10;47.60;;;;;;5415017;26;20279;-47
2024/04/21 04:15:34;;;;;;;0.00;0.00;;;22.10;47.60;;;;;;5414904;26;20267;-47
2024/04/21 04:18:04;;;;;;;0.10;0.10;;;22.10;47.80;;;;;;5411885;26;20225;-48
2024/04/21 04:20:37;;;;;;;0.00;0.00;;;22.10;47.70;;;;;;5414554;26;20225;-47
2024/04/21 04:23:06;;;;;;;0.00;0.00;;;22.10;47.70;;;;;;5414591;26;20666;-49
2024/04/21 04:25:41;;;;;;;0.10;0.10;;;22.10;47.80;;;;;;5414217;26;20757;-50
2024/04/21 04:28:11;;;;;;;0.00;0.00;;;22.10;47.60;;;;;;5414515;26;20217;-47
2024/04/21 04:30:44;;;;;;;0.10;0.10;;;22.10;47.60;;;;;;5414125;26;20280;-48
2024/04/21 04:33:13;;;;;;;0.05;0.05;;;22.20;47.60;;;;;;5414194;26;20554;-46
2024/04/21 04:35:45;;;;;;;0.00;0.00;;;22.20;47.60;;;;;;5414749;26;20232;-47
2024/04/21 04:38:14;;;;;;;0.10;0.10;;;22.20;47.50;;;;;;5414287;26;20709;-47
2024/04/21 04:40:50;;;;;;;0.10;0.10;;;22.20;47.40;;;;;;5414066;26;20221;-49
2024/04/21 04:43:20;;;;;;;0.00;0.00;;;22.20;47.40;;;;;;5414195;26;20259;-49
2024/04/21 04:45:52;;;;;;;0.10;0.10;;;22.20;47.20;;;;;;5414342;26;20273;-47
2024/04/21 04:48:21;;;;;;;0.00;0.00;;;22.20;47.20;;;;;;5414982;26;20213;-47
2024/04/21 04:50:54;;;;;;;0.00;0.00;;;22.20;47.20;;;;;;5414303;26;20218;-47
2024/04/21 04:53:23;;;;;;;0.00;0.00;;;22.20;47.20;;;;;;5410989;26;20268;-48
2024/04/21 04:55:58;;;;;;;0.10;0.10;;;22.20;47.10;;;;;;5413288;26;20330;-49
2024/04/21 04:58:27;;;;;;;0.10;0.10;;;22.20;47.00;;;;;;5382095;26;20226;-47
2024/04/21 05:01:00;;;;;;;0.08;0.08;;;22.20;46.90;;;;;;5379823;26;20268;-49
2024/04/21 05:03:29;;;;;;;0.00;0.00;;;22.10;46.90;;;;;;5382757;26;20215;-47
2024/04/21 05:06:01;;;;;;;0.08;0.08;;;22.10;46.80;;;;;;5382243;26;20631;-48
2024/04/21 05:08:33;;;;;;;0.00;0.00;;;22.20;46.80;;;;;;5381785;26;20773;-47
2024/04/21 05:11:06;;;;;;;0.10;0.10;;;22.10;46.80;;;;;;5381352;26;20219;-47
2024/04/21 05:13:39;;;;;;;0.00;0.00;;;22.10;46.70;;;;;;5383030;26;20881;-49
2024/04/21 05:16:08;;;;;;;0.05;0.05;;;22.10;46.70;;;;;;5401718;26;20333;-47
2024/04/21 05:18:40;;;;;;;0.08;0.08;;;22.10;46.60;;;;;;5417180;26;20238;-48
2024/04/21 05:21:09;;;;;;;0.00;0.00;;;22.10;46.60;;;;;;5416740;26;20317;-46
2024/04/21 05:23:41;;;;;;;0.10;0.10;;;22.10;46.60;;;;;;5417142;26;20217;-47
2024/04/21 05:26:14;;;;;;;0.10;0.10;;;22.10;46.60;;;;;;5417167;26;20217;-47
2024/04/21 05:28:46;;;;;;;0.00;0.00;;;22.10;46.60;;;;;;5417350;26;20221;-47
2024/04/21 05:31:15;;;;;;;0.00;0.00;;;22.00;46.60;;;;;;5417169;26;20254;-48
2024/04/21 05:33:47;;;;;;;0.00;0.00;;;22.00;46.50;;;;;;5417303;26;20236;-48
2024/04/21 05:36:17;;;;;;;0.00;0.00;;;22.00;46.50;;;;;;5413755;26;20279;-48
2024/04/21 05:38:49;;;;;;;0.00;0.00;;;22.00;46.50;;;;;;5416775;26;20659;-50
2024/04/21 05:41:21;;;;;;;0.10;0.10;;;22.00;46.60;;;;;;5416359;26;20264;-50
2024/04/21 05:43:53;;;;;;;0.00;0.00;;;22.00;46.60;;;;;;5411782;26;20567;-48
2024/04/21 05:46:22;;;;;;;0.00;0.00;;;22.00;46.40;;;;;;5415979;26;20264;-48
2024/04/21 05:48:55;;;;;;;0.10;0.10;;;22.00;46.10;;;;;;5416712;26;20810;-48
2024/04/21 05:51:24;;;;;;;0.00;0.00;;;21.90;46.20;;;;;;5416971;26;20267;-47
2024/04/21 05:53:56;;;;;;;0.00;0.00;;;21.90;46.30;;;;;;5416385;26;21072;-48
2024/04/21 05:56:29;;;;;;;0.08;0.08;;;21.90;46.40;;;;;;5416246;26;20263;-54
2024/04/21 05:59:01;;;;;;;0.10;0.10;;;21.90;46.40;;;;;;5416283;26;20229;-51
2024/04/21 06:01:33;;;;;;;0.00;0.00;;;21.80;46.40;;;;;;5415936;26;20414;-52
2024/04/21 06:04:05;;;;;;;0.00;0.00;;;21.80;46.40;;;;;;5416225;26;20217;-51
2024/04/21 06:06:35;;;;;;;0.00;0.00;;;21.80;46.40;;;;;;5414907;26;20281;-47
2024/04/21 06:09:07;;;;;;;0.00;0.00;;;21.80;46.40;;;;;;5405135;26;20234;-50
2024/04/21 06:11:40;;;;;;;0.00;0.00;;;21.80;46.40;;;;;;5379123;26;20336;-48
2024/04/21 06:14:13;;;;;;;0.00;0.00;;;21.80;46.40;;;;;;5379844;26;20686;-48
2024/04/21 06:16:42;;;;;;;0.00;0.00;;;21.70;46.40;;;;;;5406791;26;20252;-48
2024/04/21 06:19:14;;;;;;;0.10;0.10;;;21.70;46.40;;;;;;5380428;26;20242;-48
2024/04/21 06:21:43;;;;;;;0.00;0.00;;;21.70;46.40;;;;;;5380636;26;20211;-50
2024/04/21 06:24:16;;;;;;;0.00;0.00;;;21.70;46.40;;;;;;5380435;26;20219;-48
2024/04/21 06:26:48;;;;;;;0.00;0.00;;;21.60;46.30;;;;;;5379883;26;20222;-48
2024/04/21 06:29:20;;;;;;;0.10;0.10;;;21.60;46.40;;;;;;5379830;26;20227;-47
2024/04/21 06:31:49;;;;;;;0.10;0.10;;;21.60;46.40;;;;;;5380842;26;20476;-47
2024/04/21 06:34:22;;;;;;;0.00;0.00;;;21.60;46.40;;;;;;5380954;26;20768;-48
2024/04/21 06:36:51;;;;;;;0.10;0.10;;;21.60;46.50;;;;;;5380455;26;20565;-47
2024/04/21 06:39:23;;;;;;;0.10;0.10;;;21.60;46.50;;;;;;5380624;26;20347;-46
2024/04/21 06:41:55;;;;;;;0.10;0.10;;;21.50;46.50;;;;;;5380725;26;20706;-48
2024/04/21 06:44:27;;;;;;;0.00;0.00;;;21.50;46.50;;;;;;5379482;26;20222;-50
2024/04/21 06:46:57;;;;;;;0.00;0.00;;;21.50;46.50;;;;;;5412955;26;20214;-51
2024/04/21 06:49:30;;;;;;;0.05;0.05;;;21.50;46.60;;;;;;5416405;26;20241;-50
2024/04/21 06:51:59;;;;;;;0.00;0.00;;;21.50;46.60;;;;;;5407802;26;20322;-48
2024/04/21 06:54:31;;;;;;;0.03;0.03;;;21.50;46.60;;;;;;5380882;26;20595;-50
2024/04/21 06:57:03;;;;;;;0.10;0.10;;;21.50;47.00;;;;;;5379871;26;20223;-49
2024/04/21 06:59:36;;;;;;;0.00;0.00;;;21.50;47.00;;;;;;5379257;26;20238;-49
2024/04/21 07:02:05;;;;;;;0.00;0.00;;;21.50;46.90;;;;;;5380827;26;20322;-49
2024/04/21 07:04:37;;;;;;;0.00;0.00;;;21.50;46.90;;;;;;5380249;26;20327;-48
2024/04/21 07:07:07;;;;;;;0.00;0.00;;;21.50;46.90;;;;;;5380206;26;20219;-48
2024/04/21 07:09:40;;;;;;;0.10;0.10;;;21.50;46.90;;;;;;5379969;26;20234;-49
2024/04/21 07:12:13;;;;;;;0.10;0.10;;;21.50;46.90;;;;;;5380507;26;21313;-48
2024/04/21 07:14:45;;;;;;;0.00;0.00;;;21.50;46.90;;;;;;5384133;26;20610;-48
2024/04/21 07:17:15;;;;;;;0.10;0.10;;;21.50;46.90;;;;;;5380245;26;20253;-47
2024/04/21 07:19:47;;;;;;;0.00;0.00;;;21.40;46.90;;;;;;5380063;26;20242;-49
2024/04/21 07:22:16;;;;;;;0.10;0.10;;;21.40;46.90;;;;;;5379612;26;20222;-47
2024/04/21 07:24:48;;;;;;;0.00;0.00;;;21.40;46.90;;;;;;5380032;26;20222;-47
2024/04/21 07:27:21;;;;;;;0.00;0.00;;;21.40;46.90;;;;;;5380144;26;20223;-47
2024/04/21 07:29:53;;;;;;;0.10;0.10;;;21.40;47.00;;;;;;5379125;26;20242;-47
2024/04/21 07:32:22;;;;;;;0.00;0.00;;;21.30;47.00;;;;;;5379545;26;20811;-47
2024/04/21 07:34:55;;;;;;;0.10;0.10;;;21.30;47.00;;;;;;5379220;26;20323;-47
2024/04/21 07:37:24;;;;;;;0.10;0.10;;;21.30;47.10;;;;;;5378683;26;20214;-48
2024/04/21 07:39:56;;;;;;;0.00;0.00;;;21.30;47.10;;;;;;5379378;26;20286;-47
2024/04/21 07:42:31;;;;;;;0.10;0.10;;;21.30;47.10;;;;;;5379577;26;20218;-47
2024/04/21 07:45:01;;;;;;;0.10;0.10;;;21.20;47.20;;;;;;5382698;26;20222;-47
2024/04/21 07:47:33;;;;;;;0.00;0.00;;;21.20;47.50;;;;;;5409162;26;20241;-48
2024/04/21 07:50:03;;;;;;;0.05;0.05;;;21.20;47.30;;;;;;5414480;26;20230;-48
2024/04/21 07:52:38;;;;;;;0.00;0.00;;;21.20;47.30;;;;;;5414420;26;20268;-49
2024/04/21 07:55:07;;;;;;;0.00;0.00;;;21.20;47.30;;;;;;5415240;26;20560;-52
2024/04/21 07:57:43;;;;;;;0.00;0.00;;;21.10;47.30;;;;;;5415807;26;20829;-48
2024/04/21 08:00:13;;;;;;;0.08;0.08;;;21.10;47.40;;;;;;5413693;26;20279;-47
2024/04/21 08:02:45;;;;;;;0.10;0.10;;;21.10;47.40;;;;;;5414689;26;20285;-47
2024/04/21 08:05:14;;;;;;;0.00;0.00;;;21.10;47.40;;;;;;5414914;26;20312;-47
2024/04/21 08:07:46;;;;;;;0.00;0.00;;;21.10;47.50;;;;;;5408460;26;20221;-46
2024/04/21 08:10:16;;;;;;;0.10;0.10;;;21.10;47.50;;;;;;5414933;26;20287;-46
2024/04/21 08:12:52;;;;;;;0.00;0.00;;;21.10;47.50;;;;;;5414600;26;20652;-48
2024/04/21 08:15:21;;;;;;;0.00;0.00;;;21.00;47.50;;;;;;5413775;26;20544;-49
2024/04/21 08:17:53;;;;;;;0.00;0.00;;;21.00;47.50;;;;;;5414481;26;20256;-49
2024/04/21 08:20:22;;;;;;;0.10;0.10;;;21.00;47.60;;;;;;5414619;26;20333;-49
2024/04/21 08:22:55;;;;;;;0.00;0.00;;;20.90;47.50;;;;;;5414394;26;20225;-49
2024/04/21 08:25:24;;;;;;;0.00;0.00;;;20.90;47.60;;;;;;5411427;26;20693;-56
2024/04/21 08:27:59;;;;;;;0.05;0.05;;;20.90;47.60;;;;;;5383836;26;20226;-50
2024/04/21 08:30:28;;;;;;;0.00;0.00;;;20.90;47.60;;;;;;5371778;26;20265;-55
2024/04/21 08:33:01;;;;;;;0.00;0.00;;;20.90;48.30;;;;;;5391118;26;20221;-52
2024/04/21 08:35:30;;;;;;;0.00;0.00;;;21.00;48.80;;;;;;5409093;26;20334;-51
2024/04/21 08:38:02;;;;;;;0.00;0.00;;;21.00;48.90;;;;;;5412629;26;20218;-56
2024/04/21 08:40:33;;;;;;;0.00;0.00;;;21.00;48.90;;;;;;5376914;26;20733;-57
2024/04/21 08:43:10;;;;;;;0.00;0.00;;;21.00;48.90;;;;;;5377712;26;20269;-52
2024/04/21 08:45:40;;;;;;;0.00;0.00;;;21.00;48.90;;;;;;5402914;26;20313;-49
2024/04/21 08:48:13;;;;;;;0.00;0.00;;;21.10;48.90;;;;;;5412253;26;20220;-53
2024/04/21 08:50:44;;;;;;;0.10;0.10;;;21.10;48.80;;;;;;5412038;26;20310;-52
2024/04/21 08:53:16;;;;;;;0.10;0.10;;;21.10;48.80;;;;;;5405889;26;20225;-49
2024/04/21 08:55:48;;;;;;;0.10;0.10;;;21.10;48.80;;;;;;5412568;26;20221;-50
2024/04/21 08:58:24;;;;;;;0.10;0.10;;;21.10;48.80;;;;;;5397333;26;20327;-49
2024/04/21 09:00:54;;;;;;;0.00;0.00;;;21.10;48.80;;;;;;5383832;26;20271;-55
2024/04/21 09:03:27;;;;;;;0.10;0.10;;;21.10;48.70;;;;;;5413461;26;20277;-49
2024/04/21 09:05:58;;;;;;;0.00;0.00;;;21.10;48.70;;;;;;5412665;26;20591;-51
2024/04/21 09:08:30;;;;;;;0.05;0.05;;;21.10;48.60;;;;;;5391705;26;20738;-46
2024/04/21 09:10:59;;;;;;;0.00;0.00;;;21.10;48.60;;;;;;5377806;26;20658;-50
2024/04/21 09:13:35;;;;;;;0.08;0.08;;;21.10;48.50;;;;;;5376936;26;20230;-50
2024/04/21 09:16:05;;;;;;;0.00;0.00;;;21.10;48.50;;;;;;5397069;26;20337;-49
2024/04/21 09:18:37;;;;;;;0.00;0.00;;;21.10;48.50;;;;;;5411748;26;20229;-47
2024/04/21 09:21:06;;;;;;;0.00;0.00;;;21.10;48.40;;;;;;5413185;26;20543;-50
2024/04/21 09:23:40;;;;;;;0.00;0.00;;;21.10;48.30;;;;;;5412113;26;20221;-50
2024/04/21 09:26:10;;;;;;;0.00;0.00;;;21.10;48.30;;;;;;5412909;26;20218;-56
2024/04/21 09:28:45;;;;;;;0.10;0.10;;;21.10;48.30;;;;;;5411119;26;20279;-52
2024/04/21 09:31:15;;;;;;;0.10;0.10;;;21.10;48.20;;;;;;5410915;26;20221;-52
2024/04/21 09:33:49;;;;;;;0.00;0.00;;;21.00;48.20;;;;;;5413376;26;20229;-54
2024/04/21 09:36:18;;;;;;;0.00;0.00;;;21.00;48.10;;;;;;5412354;26;20217;-48
2024/04/21 09:38:54;;;;;;;0.00;0.00;;;21.00;48.10;;;;;;5412466;26;20241;-58
2024/04/21 09:41:25;;;;;;;0.00;0.00;;;21.00;48.10;;;;;;5410670;26;20221;-48
2024/04/21 09:44:01;;;;;;;0.00;0.00;;;21.00;48.10;;;;;;5412242;26;20302;-55
2024/04/21 09:46:31;;;;;;;0.00;0.00;;;20.90;48.00;;;;;;5411064;26;20217;-47
2024/04/21 09:49:06;;;;;;;0.10;0.10;;;20.90;48.00;;;;;;5411784;26;20229;-50
2024/04/21 09:51:37;;;;;;;0.10;0.10;;;20.90;48.00;;;;;;5401438;26;20325;-47
2024/04/21 09:54:09;;;;;;;0.10;0.10;;;20.90;48.00;;;;;;5387179;26;20236;-49
2024/04/21 09:56:41;;;;;;;0.05;0.05;;;20.90;48.00;;;;;;5412752;26;20247;-55
2024/04/21 09:59:19;;;;;;;0.00;0.00;;;20.90;47.90;;;;;;5411984;26;20233;-53
2024/04/21 10:01:49;;;;;;;0.00;0.00;;;20.90;48.00;;;;;;5405925;26;20221;-54
2024/04/21 10:04:25;;;;;;;0.10;0.10;;;20.90;47.90;;;;;;5411890;26;20229;-50
2024/04/21 10:06:54;;;;;;;0.03;0.03;;;20.90;47.90;;;;;;5411092;26;20704;-52
2024/04/21 10:09:28;;;;;;;0.10;0.10;;;20.80;47.80;;;;;;5411409;26;20795;-51
2024/04/21 10:11:57;;;;;;;0.10;0.10;;;20.80;47.80;;;;;;5410030;26;20271;-52
2024/04/21 10:14:33;;;;;;;0.00;0.00;;;20.80;47.80;;;;;;5375404;26;20599;-48
2024/04/21 10:17:03;;;;;;;0.00;0.00;;;20.80;47.70;;;;;;5410610;26;20273;-51
2024/04/21 10:19:35;;;;;;;0.10;0.10;;;20.80;47.70;;;;;;5411337;26;20229;-47
2024/04/21 10:22:06;;;;;;;0.00;0.00;;;20.80;48.30;;;;;;5410551;26;20707;-53
2024/04/21 10:24:39;;;;;;;0.00;0.00;;;20.80;48.30;;;;;;5410942;26;20264;-54
2024/04/21 10:27:11;;;;;;;0.00;0.00;;;20.70;47.70;;;;;;5410571;26;20213;-55
2024/04/21 10:29:46;;;;;;;0.10;0.10;;;20.70;48.20;;;;;;5411584;26;20673;-53
2024/04/21 10:32:19;;;;;;;0.10;0.10;;;20.70;47.60;;;;;;5410354;26;20715;-50
2024/04/21 10:34:48;;;;;;;0.00;0.00;;;20.70;47.60;;;;;;5411160;26;20640;-54
2024/04/21 10:37:24;;;;;;;0.00;0.00;;;20.60;47.60;;;;;;5410507;26;20263;-47
2024/04/21 10:40:00;;;;;;;0.10;0.10;;;20.60;47.60;;;;;;5411297;26;20228;-50
2024/04/21 10:42:36;;;;;;;0.10;0.10;;;20.60;47.50;;;;;;5409688;26;20221;-50
2024/04/21 10:45:09;;;;;;;0.10;0.10;;;20.60;47.50;;;;;;5411059;26;20221;-53
2024/04/21 10:47:41;;;;;;;0.00;0.00;;;20.60;47.60;;;;;;5409970;26;20241;-50
2024/04/21 10:50:10;;;;;;;0.10;0.10;;;20.50;47.50;;;;;;5409247;26;20587;-55
2024/04/21 10:52:44;;;;;;;0.10;0.10;;;20.50;47.40;;;;;;5408368;26;20620;-51
2024/04/21 10:55:14;;;;;;;0.10;0.10;;;20.50;47.50;;;;;;5402999;26;20221;-49
2024/04/21 10:57:46;;;;;;;0.10;0.10;;;20.50;47.50;;;;;;5390941;26;20225;-53
2024/04/21 11:00:19;;;;;;;0.10;0.10;;;20.50;47.50;;;;;;5410267;26;20226;-47
2024/04/21 11:02:52;;;;;;;0.00;0.00;;;20.50;47.50;;;;;;5376710;26;20768;-52
2024/04/21 11:05:23;;;;;;;0.08;0.08;;;20.40;47.40;;;;;;5373680;26;20711;-49
2024/04/21 11:07:55;;;;;;;0.10;0.10;;;20.40;47.40;;;;;;5381571;26;20788;-47
2024/04/21 11:10:25;;;;;;;0.00;0.00;;;20.40;47.40;;;;;;5394380;26;20740;-48
2024/04/21 11:12:58;;;;;;;0.00;0.00;;;20.40;47.50;;;;;;5396986;26;20231;-47
2024/04/21 11:15:31;;;;;;;0.00;0.00;;;20.40;47.50;;;;;;5395687;26;20256;-48
2024/04/21 11:18:04;;;;;;;0.00;0.00;;;20.40;47.50;;;;;;5398478;26;20740;-49
2024/04/21 11:20:33;;;;;;;0.10;0.10;;;20.40;47.50;;;;;;5398311;26;20237;-48
2024/04/21 11:23:06;;;;;;;0.05;0.05;;;20.40;47.50;;;;;;5398070;26;20234;-47
2024/04/21 11:25:35;;;;;;;0.10;0.10;;;20.30;47.50;;;;;;5396372;26;20265;-46
2024/04/21 11:28:14;;;;;;;0.00;0.00;;;20.30;47.50;;;;;;5394695;26;20221;-46
2024/04/21 11:30:47;;;;;;;0.10;0.10;;;20.30;47.50;;;;;;5398223;26;20504;-47
2024/04/21 11:33:19;;;;;;;0.00;0.00;;;20.30;47.50;;;;;;5396478;26;20294;-47
2024/04/21 11:35:48;;;;;;;0.05;0.05;;;20.20;47.50;;;;;;5395068;26;20226;-47
2024/04/21 11:38:21;;;;;;;0.10;0.10;;;20.20;47.50;;;;;;5396869;26;20272;-47
2024/04/21 11:40:51;;;;;;;0.00;0.00;;;20.20;47.50;;;;;;5399569;26;20281;-49
2024/04/21 11:43:24;;;;;;;0.00;0.00;;;20.20;47.40;;;;;;5395461;26;20362;-46
2024/04/21 11:46:00;;;;;;;0.10;0.10;;;20.20;47.40;;;;;;5402415;26;20229;-46
2024/04/21 11:48:35;;;;;;;0.08;0.08;;;20.20;47.40;;;;;;5398017;26;20720;-46
2024/04/21 11:51:05;;;;;;;0.05;0.05;;;20.20;47.30;;;;;;5398501;26;20292;-47
2024/04/21 11:53:38;;;;;;;0.00;0.00;;;20.10;47.20;;;;;;5396047;26;20635;-47
2024/04/21 11:56:08;;;;;;;0.10;0.10;;;20.20;47.20;;;;;;5394125;26;20230;-47
2024/04/21 11:58:40;;;;;;;0.03;0.03;;;20.10;47.20;;;;;;5399717;26;20375;-47
2024/04/21 12:01:12;;;;;;;0.00;0.00;;;20.10;47.20;;;;;;5397523;26;20229;-47
2024/04/21 12:03:45;;;;;;;0.00;0.00;;;20.10;47.10;;;;;;5397176;26;20590;-45
2024/04/21 12:06:15;;;;;;;0.00;0.00;;;20.10;47.10;;;;;;5395820;26;20260;-46
2024/04/21 12:08:47;;;;;;;0.00;0.00;;;20.10;47.20;;;;;;5394656;26;20757;-47
2024/04/21 12:11:16;;;;;;;0.00;0.00;;;20.10;47.20;;;;;;5398230;26;20563;-47
2024/04/21 12:13:48;;;;;;;0.00;0.00;;;20.10;47.20;;;;;;5394662;26;20589;-47
2024/04/21 12:16:21;;;;;;;0.10;0.10;;;20.00;47.20;;;;;;5399010;26;20223;-46
2024/04/21 12:18:54;;;;;;;0.10;0.10;;;20.00;47.20;;;;;;5394182;26;20284;-45
2024/04/21 12:21:23;;;;;;;0.00;0.00;;;20.00;47.20;;;;;;5394852;26;20229;-46
2024/04/21 12:23:55;;;;;;;0.10;0.10;;;20.00;47.30;;;;;;5395091;26;20747;-46
2024/04/21 12:26:24;;;;;;;0.00;0.00;;;20.00;47.30;;;;;;5394719;26;20225;-46
2024/04/21 12:28:56;;;;;;;0.08;0.08;;;20.00;47.30;;;;;;5395132;26;20733;-46
2024/04/21 12:31:29;;;;;;;0.03;0.03;;;19.90;47.20;;;;;;5394927;26;20242;-46
2024/04/21 12:34:01;;;;;;;0.00;0.00;;;19.90;47.30;;;;;;5396142;26;20799;-46
2024/04/21 12:36:30;;;;;;;0.10;0.10;;;19.90;47.30;;;;;;5397588;26;20225;-46
2024/04/21 12:39:02;;;;;;;0.10;0.10;;;19.90;47.30;;;;;;5395910;26;20246;-49
2024/04/21 12:41:32;;;;;;;0.10;0.10;;;19.90;47.30;;;;;;5394009;26;20559;-47
2024/04/21 12:44:04;;;;;;;0.03;0.03;;;19.90;47.30;;;;;;5394634;26;20229;-46
2024/04/21 12:46:36;;;;;;;0.10;0.10;;;19.80;47.30;;;;;;5402201;26;20294;-46
2024/04/21 12:49:08;;;;;;;0.00;0.00;;;19.80;47.30;;;;;;5397215;26;20237;-46
2024/04/21 12:51:37;;;;;;;0.10;0.10;;;19.80;47.30;;;;;;5395552;26;20226;-47
2024/04/21 12:54:10;;;;;;;0.10;0.10;;;19.80;47.30;;;;;;5397764;26;20229;-47
2024/04/21 12:56:39;;;;;;;0.00;0.00;;;19.80;47.30;;;;;;5398507;26;20757;-46
2024/04/21 12:59:11;;;;;;;0.00;0.00;;;19.80;47.30;;;;;;5412714;26;20233;-46
2024/04/21 13:01:44;;;;;;;0.08;0.08;;;19.80;47.40;;;;;;5413417;26;20608;-46
2024/04/21 13:04:16;;;;;;;0.10;0.10;;;19.80;47.40;;;;;;5414359;26;20753;-48
2024/04/21 13:06:45;;;;;;;0.10;0.10;;;19.80;47.40;;;;;;5413314;26;20213;-46
2024/04/21 13:09:17;;;;;;;0.10;0.10;;;19.80;47.40;;;;;;5413057;26;20242;-48